Time;durP1;ratioP1;P1;durP2;ratioP2;P2;SDS_P1;SDS_P2;PMS_P1;PMS_P2;Temp;Humidity;BMP_temperature;BMP_pressure;BME280_temperature;BME280_humidity;BME280_pressure;Samples;Min_cycle;Max_cycle;Signal;HPM_P1;HPM_P2
2023/09/13 00:04:49;;;;;;;15.77;11.68;;;;;;;-145.68;84.45;72712.34;10447683;28;20188;-74
2023/09/13 00:09:50;;;;;;;16.83;11.25;;;;;;;-145.68;83.81;72700.34;10446079;28;20541;-74
2023/09/13 00:14:50;;;;;;;14.30;12.13;;;;;;;-145.68;83.32;72706.34;10446570;28;20273;-75
2023/09/13 00:19:50;;;;;;;15.35;11.45;;;;;;;-145.68;83.99;72696.34;10446608;28;20198;-75
2023/09/13 00:24:51;;;;;;;14.57;11.30;;;;;;;-145.68;82.92;72682.38;10446676;28;20187;-74
2023/09/13 00:29:51;;;;;;;13.75;10.27;;;;;;;-145.68;83.45;72684.38;10445806;28;20188;-75
2023/09/13 00:34:51;;;;;;;15.88;11.48;;;;;;;-145.68;84.30;72696.34;10428373;28;20231;-75
2023/09/13 00:39:52;;;;;;;16.40;11.38;;;;;;;-145.68;84.87;72704.34;10427581;28;20731;-74
2023/09/13 00:44:52;;;;;;;15.75;11.43;;;;;;;-145.68;85.09;72702.34;10447018;28;20283;-75
2023/09/13 00:49:53;;;;;;;14.48;10.93;;;;;;;-145.68;83.13;72682.38;10444898;28;20244;-75
2023/09/13 00:54:53;;;;;;;14.70;10.52;;;;;;;-145.68;80.48;72654.41;10444935;28;20212;-75
2023/09/13 00:59:54;;;;;;;15.25;11.30;;;;;;;-145.68;77.90;72618.44;10426028;28;20195;-74
2023/09/13 01:04:54;;;;;;;14.10;10.45;;;;;;;-145.68;75.33;72580.47;10427768;28;20192;-75
2023/09/13 01:09:55;;;;;;;16.85;10.95;;;;;;;-145.68;73.08;72552.47;10444859;28;20706;-74
2023/09/13 01:14:55;;;;;;;13.00;9.85;;;;;;;-145.68;71.12;72524.50;10440458;28;20292;-74
2023/09/13 01:20:17;;;;;;;14.23;10.35;;;;;;;-145.68;71.13;72548.47;10445290;28;20192;-75
2023/09/13 01:25:41;;;;;;;15.45;11.40;;;;;;;-145.68;68.91;72466.56;10426151;28;20566;-74
2023/09/13 01:30:42;;;;;;;13.52;9.18;;;;;;;-145.68;67.13;72496.53;10426981;28;20198;-75
2023/09/13 01:35:43;;;;;;;11.88;8.23;;;;;;;-145.68;66.25;72522.50;10427090;28;20238;-74
2023/09/13 01:40:44;;;;;;;21.40;7.95;;;;;;;-145.68;65.83;72538.50;10451174;28;20218;-75
2023/09/13 01:45:46;;;;;;;11.93;8.07;;;;;;;-145.68;66.16;72550.47;10418018;28;20198;-75
2023/09/13 01:50:47;;;;;;;12.77;6.60;;;;;;;-145.68;66.10;72530.50;10422789;28;20255;-75
2023/09/13 01:55:48;;;;;;;12.38;7.32;;;;;;;-145.68;67.14;72546.47;10433734;28;20310;-74
2023/09/13 02:00:48;;;;;;;13.05;7.50;;;;;;;-145.68;78.23;72606.44;10434559;28;20187;-74
2023/09/13 02:05:49;;;;;;;17.70;7.90;;;;;;;-145.68;87.58;72672.38;10450516;28;20184;-75
2023/09/13 02:10:49;;;;;;;14.55;8.95;;;;;;;-145.68;99.34;72750.31;10432365;28;20196;-75
2023/09/13 02:15:50;;;;;;;18.95;9.88;;;;;;;-145.68;100.00;72830.25;10431651;28;20223;-74
2023/09/13 02:20:50;;;;;;;18.63;10.27;;;;;;;-145.68;100.00;72876.22;10450190;28;20680;-74
2023/09/13 02:25:50;;;;;;;17.73;10.43;;;;;;;-145.68;100.00;72862.22;10431807;28;20630;-74
2023/09/13 02:30:51;;;;;;;17.02;11.38;;;;;;;-145.68;100.00;72912.19;10432354;28;20203;-74
2023/09/13 02:35:52;;;;;;;15.95;10.70;;;;;;;-145.68;100.00;72918.19;10450499;28;20223;-74
2023/09/13 02:40:52;;;;;;;20.10;12.15;;;;;;;-145.68;100.00;72928.19;10449659;28;20195;-74
2023/09/13 02:45:52;;;;;;;16.17;11.40;;;;;;;-145.68;100.00;72920.19;10449923;28;20198;-74
2023/09/13 02:50:53;;;;;;;17.30;11.45;;;;;;;-145.68;100.00;72928.19;10368403;28;20239;-74
2023/09/13 02:56:03;;;;;;;23.08;12.10;;;;;;;-145.68;100.00;72944.16;10350045;28;20824;-74
2023/09/13 03:01:09;;;;;;;18.58;12.93;;;;;;;-145.68;100.00;72942.16;10348213;28;20229;-74
2023/09/13 03:06:13;;;;;;;15.75;12.30;;;;;;;-145.68;100.00;72928.19;10348625;28;20705;-74
2023/09/13 03:11:16;;;;;;;12.98;10.93;;;;;;;-145.68;100.00;72924.19;10347887;28;20328;-74
2023/09/13 03:16:19;;;;;;;17.77;12.80;;;;;;;-145.68;100.00;72954.16;10366060;28;20213;-75
2023/09/13 03:21:20;;;;;;;14.55;11.75;;;;;;;-145.68;100.00;72936.19;10348042;28;20205;-74
2023/09/13 03:26:23;;;;;;;15.63;11.07;;;;;;;-145.68;100.00;72946.16;10331450;28;20273;-74
2023/09/13 03:31:25;;;;;;;15.23;10.98;;;;;;;-145.68;100.00;72976.16;10347654;28;20192;-74
2023/09/13 03:36:28;;;;;;;16.13;12.80;;;;;;;-145.68;100.00;72980.13;10346705;28;20221;-74
2023/09/13 03:41:29;;;;;;;18.45;13.63;;;;;;;-145.68;100.00;73034.09;10351777;28;20212;-74
2023/09/13 03:46:30;;;;;;;15.80;13.48;;;;;;;-145.68;100.00;73028.09;10347933;28;20181;-74
2023/09/13 03:51:32;;;;;;;16.73;13.38;;;;;;;-145.68;100.00;73044.09;10387723;28;20192;-74
2023/09/13 03:56:33;;;;;;;18.70;11.90;;;;;;;-145.68;100.00;73048.09;10387044;28;20220;-74
2023/09/13 04:01:34;;;;;;;19.85;14.32;;;;;;;-145.68;100.00;73052.09;10386495;28;20223;-74
2023/09/13 04:06:36;;;;;;;18.00;15.15;;;;;;;-145.68;100.00;73048.09;10386813;28;20251;-74
2023/09/13 04:11:36;;;;;;;18.27;13.98;;;;;;;-145.68;100.00;73048.09;10386797;28;20614;-75
2023/09/13 04:16:37;;;;;;;21.13;13.90;;;;;;;-145.68;100.00;73036.09;10403857;28;20228;-74
2023/09/13 04:21:37;;;;;;;23.83;16.38;;;;;;;-145.68;100.00;73020.13;10404909;28;20664;-74
2023/09/13 04:26:37;;;;;;;22.05;14.77;;;;;;;-145.68;100.00;73038.09;10404053;28;20279;-74
2023/09/13 04:31:38;;;;;;;17.95;14.63;;;;;;;-145.68;100.00;73046.09;10386206;28;20197;-74
2023/09/13 04:36:39;;;;;;;18.33;12.77;;;;;;;-145.68;100.00;73036.09;10385899;28;20239;-74
2023/09/13 04:41:40;;;;;;;16.83;13.35;;;;;;;-145.68;100.00;73036.09;10386151;28;20192;-74
2023/09/13 04:46:40;;;;;;;16.80;12.43;;;;;;;-145.68;100.00;73026.09;10403222;28;20577;-75
2023/09/13 04:51:41;;;;;;;14.73;13.18;;;;;;;-145.68;100.00;73034.09;10403134;28;20192;-74
2023/09/13 04:56:41;;;;;;;17.50;13.32;;;;;;;-145.68;100.00;73034.09;10385953;28;20240;-74
2023/09/13 05:01:42;;;;;;;22.33;13.63;;;;;;;-145.68;100.00;73012.13;10403475;28;20189;-74
2023/09/13 05:06:42;;;;;;;16.58;13.50;;;;;;;-145.68;100.00;72998.13;10385595;28;20267;-74
2023/09/13 05:11:43;;;;;;;21.30;13.45;;;;;;;-145.68;100.00;72988.13;10403718;28;20481;-74
2023/09/13 05:16:43;;;;;;;15.85;12.88;;;;;;;-145.68;100.00;72976.16;10409018;28;20217;-75
2023/09/13 05:21:44;;;;;;;17.88;13.07;;;;;;;-145.68;100.00;72958.16;10410393;28;20653;-74
2023/09/13 05:26:44;;;;;;;17.08;12.90;;;;;;;-145.68;100.00;72976.16;10409316;28;20224;-75
2023/09/13 05:31:44;;;;;;;18.35;13.05;;;;;;;-145.68;100.00;72968.16;10410356;28;20690;-74
2023/09/13 05:36:45;;;;;;;21.92;13.18;;;;;;;-145.68;100.00;72946.16;10409774;28;20220;-74
2023/09/13 05:41:45;;;;;;;18.05;13.02;;;;;;;-145.68;100.00;72924.19;10410298;28;20199;-74
2023/09/13 05:46:45;;;;;;;19.48;14.18;;;;;;;-145.68;100.00;72916.19;10391658;28;20267;-75
2023/09/13 05:51:46;;;;;;;19.73;14.52;;;;;;;-145.68;100.00;72904.19;10420599;28;20208;-74
2023/09/13 05:56:46;;;;;;;17.40;13.27;;;;;;;-145.68;100.00;72874.22;10415540;28;20240;-74
2023/09/13 06:01:47;;;;;;;19.13;12.65;;;;;;;-145.68;100.00;72800.28;10416042;28;20192;-74
2023/09/13 06:06:47;;;;;;;19.45;13.20;;;;;;;-145.68;100.00;72778.28;10415558;28;20592;-75
2023/09/13 06:11:48;;;;;;;20.05;12.75;;;;;;;-145.68;100.00;72684.38;10412199;28;20204;-75
2023/09/13 06:16:48;;;;;;;17.05;11.45;;;;;;;-145.68;100.00;72584.44;10393067;28;20231;-74
2023/09/13 06:21:49;;;;;;;17.58;11.57;;;;;;;-145.68;100.00;72604.44;10407039;28;20201;-74
2023/09/13 06:26:49;;;;;;;21.92;12.25;;;;;;;-145.68;98.31;72610.44;10407470;28;20192;-74
2023/09/13 06:31:50;;;;;;;18.23;13.05;;;;;;;-145.68;99.83;72618.44;10408348;28;20222;-74
2023/09/13 06:36:51;;;;;;;16.80;12.35;;;;;;;-145.68;98.81;72600.44;10407882;28;20700;-74
2023/09/13 06:41:51;;;;;;;17.05;12.98;;;;;;;-145.68;97.28;72572.47;10407642;28;20205;-75
2023/09/13 06:46:51;;;;;;;20.67;12.73;;;;;;;-145.68;96.54;72560.47;10407151;28;20630;-75
2023/09/13 06:51:52;;;;;;;21.10;12.88;;;;;;;-145.68;97.78;72556.47;10407958;28;20204;-75
2023/09/13 06:56:52;;;;;;;14.13;10.50;;;;;;;-145.68;89.17;72468.56;10404034;28;20228;-74
2023/09/13 07:01:53;;;;;;;14.07;10.50;;;;;;;-145.68;80.46;72340.66;10398331;28;20204;-75
2023/09/13 07:06:53;;;;;;;15.60;8.63;;;;;;;-145.68;73.11;72314.69;10406015;28;20224;-75
2023/09/13 07:11:53;;;;;;;11.90;8.38;;;;;;;-145.68;68.02;72322.69;10404285;28;20570;-75
2023/09/13 07:16:54;;;;;;;15.55;8.80;;;;;;;-145.68;68.52;72364.63;10404608;28;20254;-74
2023/09/13 07:21:54;;;;;;;21.42;8.27;;;;;;;-145.68;66.53;72426.59;10404239;28;20279;-75
2023/09/13 07:26:55;;;;;;;9.52;7.45;;;;;;;-145.68;66.94;72424.59;10404554;28;20201;-75
2023/09/13 07:31:55;;;;;;;9.75;7.63;;;;;;;-145.68;65.41;72386.63;10407482;28;20207;-75
2023/09/13 07:36:55;;;;;;;12.75;8.30;;;;;;;-145.68;66.62;72432.59;10411993;28;20220;-75
2023/09/13 07:41:57;;;;;;;10.60;8.55;;;;;;;-145.68;67.68;72424.59;10411615;28;20232;-74
2023/09/13 07:46:57;;;;;;;11.68;7.85;;;;;;;-145.68;67.66;72486.53;10422876;28;20756;-75
2023/09/13 07:51:58;;;;;;;9.05;7.68;;;;;;;-145.68;66.91;72506.50;10395116;28;20199;-75
2023/09/13 07:56:58;;;;;;;12.10;7.40;;;;;;;-145.68;67.62;72490.53;10415346;28;20216;-75
2023/09/13 08:01:58;;;;;;;8.07;6.03;;;;;;;-145.68;66.30;72530.50;10413655;28;20195;-74
2023/09/13 08:06:59;;;;;;;6.50;5.85;;;;;;;-145.68;66.49;72556.47;10415567;28;20192;-75
2023/09/13 08:11:59;;;;;;;7.38;5.40;;;;;;;-145.68;66.42;72532.50;10415150;28;20207;-75
2023/09/13 08:17:00;;;;;;;7.20;5.43;;;;;;;-145.68;66.53;72600.44;10405502;28;20613;-75
2023/09/13 08:22:00;;;;;;;8.73;4.72;;;;;;;-145.68;66.68;72544.50;10406830;28;20203;-75
2023/09/13 08:27:01;;;;;;;6.93;4.57;;;;;;;-145.68;66.04;72536.50;10409740;28;20193;-75
2023/09/13 08:32:01;;;;;;;10.40;5.72;;;;;;;-145.68;66.42;72570.47;10406495;28;20647;-75
2023/09/13 08:37:02;;;;;;;8.68;5.30;;;;;;;-145.68;67.59;72562.47;10407747;28;20236;-74
2023/09/13 08:42:03;;;;;;;9.85;5.72;;;;;;;-145.68;67.98;72602.44;10413371;28;20275;-75
2023/09/13 08:47:04;;;;;;;7.47;5.88;;;;;;;-145.68;67.54;72630.41;10387788;28;20571;-74
2023/09/13 08:52:05;;;;;;;8.45;5.78;;;;;;;-145.68;67.80;72602.44;10400109;28;20195;-75
2023/09/13 08:57:06;;;;;;;8.77;5.75;;;;;;;-145.68;67.44;72584.44;10388742;28;20244;-74
2023/09/13 09:02:11;;;;;;;8.93;5.68;;;;;;;-145.68;67.35;72582.44;10392901;28;20207;-74
2023/09/13 09:07:12;;;;;;;5.47;4.75;;;;;;;-145.68;65.54;72556.47;10389473;28;20656;-75
2023/09/13 09:12:16;;;;;;;7.38;4.78;;;;;;;-145.68;60.44;72324.69;10396252;28;20193;-74
2023/09/13 09:23:42;;;;;;;11.27;4.80;;;;;;;-145.68;55.66;72222.78;10405817;28;20279;-74
2023/09/13 09:28:43;;;;;;;5.13;4.60;;;;;;;-145.68;55.42;72246.75;10396030;28;20200;-74
2023/09/13 09:33:43;;;;;;;4.63;3.80;;;;;;;-145.68;53.06;72014.97;10415831;28;20220;-74
2023/09/13 09:38:44;;;;;;;4.82;4.10;;;;;;;-145.68;49.04;71965.00;10398014;28;20196;-74
2023/09/13 09:43:44;;;;;;;4.97;4.07;;;;;;;-145.68;45.93;71775.22;10389664;28;20185;-74
2023/09/13 09:48:44;;;;;;;4.22;3.83;;;;;;;-145.68;46.93;71897.09;10406629;28;20290;-74
2023/09/13 09:53:45;;;;;;;8.00;4.45;;;;;;;-145.68;48.32;71915.06;10388931;28;20243;-75
2023/09/13 09:58:47;;;;;;;7.43;4.30;;;;;;;-145.68;48.56;71985.00;10405037;28;20251;-74
2023/09/13 10:03:47;;;;;;;9.52;3.92;;;;;;;-145.68;48.62;72008.97;10388253;28;20561;-74
2023/09/13 10:08:49;;;;;;;7.90;4.63;;;;;;;-145.68;47.98;71927.06;10405222;28;20207;-74
2023/09/13 10:20:17;;;;;;;5.60;3.15;;;;;;;-145.68;46.62;71909.06;10400247;28;20277;-74
2023/09/13 10:25:48;;;;;;;4.95;3.50;;;;;;;-145.68;48.95;72094.88;10409100;28;20193;-74
2023/09/13 10:30:49;;;;;;;5.10;3.97;;;;;;;-145.68;49.35;72146.84;10403673;28;20196;-74
2023/09/13 10:35:54;;;;;;;4.32;3.22;;;;;;;-145.68;50.26;72164.81;10382182;28;20219;-74
2023/09/13 10:41:02;;;;;;;6.63;3.83;;;;;;;-145.68;52.57;72352.66;10404217;28;20267;-75
2023/09/13 10:46:03;;;;;;;6.32;3.40;;;;;;;-145.68;52.63;72236.75;10401133;28;20404;-74
2023/09/13 10:51:04;;;;;;;6.97;3.83;;;;;;;-145.68;50.90;72140.84;10407352;28;20250;-75
2023/09/13 10:56:05;;;;;;;6.22;3.70;;;;;;;-145.68;52.31;72258.75;10402818;28;20224;-74
2023/09/13 11:01:05;;;;;;;6.85;3.90;;;;;;;-145.68;55.38;72280.72;10383588;28;20207;-74
2023/09/13 11:06:07;;;;;;;4.53;3.92;;;;;;;-145.68;55.81;72272.72;10384472;28;20196;-75
2023/09/13 11:11:08;;;;;;;6.75;4.22;;;;;;;-145.68;56.06;72226.75;10383916;28;20226;-75
2023/09/13 11:16:13;;;;;;;6.53;4.45;;;;;;;-145.68;54.28;72196.78;10371784;28;20221;-75
2023/09/13 11:21:27;;;;;;;4.40;4.00;;;;;;;-145.68;55.01;72226.75;10419780;28;20201;-75
2023/09/13 11:26:45;;;;;;;5.60;3.80;;;;;;;-145.68;53.63;72164.81;10404245;28;20403;-75
2023/09/13 11:32:00;;;;;;;5.75;4.20;;;;;;;-145.68;53.71;72264.72;10414873;28;20375;-74
2023/09/13 11:37:04;;;;;;;4.30;3.53;;;;;;;-145.68;54.03;72210.78;10410472;28;20227;-75
2023/09/13 11:42:07;;;;;;;6.57;3.63;;;;;;;-145.68;53.34;72160.81;10402917;28;20421;-75
2023/09/13 11:47:10;;;;;;;5.05;3.78;;;;;;;-145.68;51.36;72078.91;10382748;28;20235;-75
2023/09/13 11:52:10;;;;;;;6.32;3.90;;;;;;;-145.68;51.36;72148.84;10402498;28;20545;-74
2023/09/13 11:57:12;;;;;;;6.35;4.63;;;;;;;-145.68;54.08;72266.72;10401384;28;20221;-75
2023/09/13 12:02:13;;;;;;;4.32;3.92;;;;;;;-145.68;54.70;72320.69;10400031;28;20247;-75
2023/09/13 12:07:13;;;;;;;8.05;4.38;;;;;;;-145.68;53.89;72348.66;10405689;28;20215;-75
2023/09/13 12:12:13;;;;;;;4.65;4.25;;;;;;;-145.68;54.93;72414.59;10416934;28;20192;-75
2023/09/13 12:17:14;;;;;;;4.80;4.30;;;;;;;-145.68;56.15;72482.53;10416558;28;20224;-75
2023/09/13 12:22:16;;;;;;;5.15;4.65;;;;;;;-145.68;55.41;72442.56;10404757;28;20210;-74
2023/09/13 12:27:16;;;;;;;4.68;4.03;;;;;;;-145.68;55.38;72450.56;10397907;28;20197;-74
2023/09/13 12:32:17;;;;;;;7.53;3.88;;;;;;;-145.68;55.63;72486.53;10399146;28;20196;-74
2023/09/13 12:37:17;;;;;;;4.10;3.80;;;;;;;-145.68;56.53;72560.47;10365429;28;20220;-74
2023/09/13 12:42:18;;;;;;;5.05;3.13;;;;;;;-145.68;57.85;72594.44;10381019;28;20199;-74
2023/09/13 12:47:18;;;;;;;4.38;3.60;;;;;;;-145.68;59.34;72618.44;10364416;28;20232;-74
2023/09/13 12:52:19;;;;;;;3.95;3.17;;;;;;;-145.68;59.90;72588.44;10378696;28;20679;-74
2023/09/13 12:57:19;;;;;;;4.10;3.45;;;;;;;-145.68;59.48;72594.44;10407086;28;20224;-73
2023/09/13 13:08:41;;;;;;;4.03;3.58;;;;;;;-145.68;63.06;72724.34;10399731;28;20185;-75
2023/09/13 13:13:41;;;;;;;5.38;3.95;;;;;;;-145.68;65.21;72738.31;10400445;28;20224;-75
2023/09/13 13:18:47;;;;;;;3.67;3.33;;;;;;;-145.68;65.05;72746.31;10380604;28;20193;-75
2023/09/13 13:23:49;;;;;;;4.35;3.50;;;;;;;-145.68;67.70;72766.31;10383223;28;20319;-75
2023/09/13 13:28:50;;;;;;;4.85;3.72;;;;;;;-145.68;67.55;72750.31;10365386;28;20262;-75
2023/09/13 13:33:50;;;;;;;4.40;4.00;;;;;;;-145.68;66.62;72692.38;10403051;28;20267;-75
2023/09/13 13:38:50;;;;;;;5.00;4.50;;;;;;;-145.68;67.31;72698.34;10408407;28;20219;-76
2023/09/13 13:43:52;;;;;;;5.20;4.30;;;;;;;-145.68;67.09;72704.34;10390859;28;20203;-74
2023/09/13 13:48:53;;;;;;;5.28;4.20;;;;;;;-145.68;66.67;72650.41;10389603;28;20232;-74
2023/09/13 13:53:54;;;;;;;6.63;5.22;;;;;;;-145.68;71.52;72778.28;10400915;28;21025;-74
2023/09/13 13:58:54;;;;;;;4.97;4.47;;;;;;;-145.68;72.99;72728.34;10412662;28;20300;-74
2023/09/13 14:03:55;;;;;;;8.48;4.53;;;;;;;-145.68;70.51;72692.38;10392992;28;20192;-74
2023/09/13 14:08:55;;;;;;;7.72;4.43;;;;;;;-145.68;69.53;72674.38;10415628;28;20279;-74
2023/09/13 14:13:55;;;;;;;4.35;3.95;;;;;;;-145.68;68.24;72692.38;10415478;28;20227;-74
2023/09/13 14:18:56;;;;;;;5.32;4.45;;;;;;;-145.68;67.87;72628.41;10411334;28;20204;-74
2023/09/13 14:23:57;;;;;;;7.30;4.03;;;;;;;-145.68;65.29;72684.38;10410983;28;20233;-74
2023/09/13 14:28:58;;;;;;;5.78;3.72;;;;;;;-145.68;65.39;72674.38;10388402;28;20621;-74
2023/09/13 14:33:59;;;;;;;5.47;3.80;;;;;;;-145.68;63.58;72632.41;10402258;28;20220;-74
2023/09/13 14:38:59;;;;;;;4.85;4.22;;;;;;;-145.68;65.37;72660.38;10395469;28;20840;-74
2023/09/13 14:44:00;;;;;;;4.43;4.03;;;;;;;-145.68;63.86;72632.41;10399872;28;20195;-74
2023/09/13 14:49:00;;;;;;;5.20;3.85;;;;;;;-145.68;64.47;72646.41;10401877;28;20244;-74
2023/09/13 14:54:00;;;;;;;4.45;3.97;;;;;;;-145.68;64.38;72612.44;10413040;28;20545;-74
2023/09/13 14:59:01;;;;;;;6.63;4.60;;;;;;;-145.68;63.35;72592.44;10412415;28;20196;-74
2023/09/13 15:04:02;;;;;;;4.60;4.00;;;;;;;-145.68;62.34;72574.47;10405167;28;20196;-75
2023/09/13 15:09:03;;;;;;;7.18;3.80;;;;;;;-145.68;63.22;72612.44;10408163;28;20198;-74
2023/09/13 15:14:04;;;;;;;4.25;3.78;;;;;;;-145.68;60.95;72530.50;10407777;28;20680;-74
2023/09/13 15:19:05;;;;;;;8.02;3.50;;;;;;;-145.68;53.29;72284.72;10416959;28;20354;-74
2023/09/13 15:24:05;;;;;;;4.68;3.10;;;;;;;-145.68;49.94;72244.75;10410271;28;20197;-74
2023/09/13 15:29:06;;;;;;;3.55;3.25;;;;;;;-145.68;50.31;72272.72;10421289;28;20224;-74
2023/09/13 15:34:09;;;;;;;8.55;3.42;;;;;;;-145.68;52.76;72364.63;10405566;28;20711;-74
2023/09/13 15:39:09;;;;;;;3.25;2.95;;;;;;;-145.68;51.91;72342.66;10410480;28;20192;-75
2023/09/13 15:44:09;;;;;;;4.57;3.30;;;;;;;-145.68;53.68;72426.59;10406069;28;20645;-75
2023/09/13 15:49:10;;;;;;;4.78;3.38;;;;;;;-145.68;53.73;72410.59;10402486;28;20623;-75
2023/09/13 15:54:10;;;;;;;4.65;3.78;;;;;;;-145.68;55.06;72450.56;10403572;28;20224;-74
2023/09/13 15:59:11;;;;;;;5.72;4.00;;;;;;;-145.68;55.68;72444.56;10402847;28;20197;-75
2023/09/13 16:04:11;;;;;;;4.80;3.75;;;;;;;-145.68;55.62;72460.56;10404948;28;20195;-75
2023/09/13 16:09:11;;;;;;;4.10;3.70;;;;;;;-145.68;57.63;72510.50;10406240;28;20219;-75
2023/09/13 16:14:30;;;;;;;4.50;3.58;;;;;;;-145.68;58.23;72520.50;10404899;28;20213;-75
2023/09/13 16:19:31;;;;;;;5.53;4.53;;;;;;;-145.68;58.05;72526.50;10404057;28;20300;-75
2023/09/13 16:24:31;;;;;;;3.70;3.40;;;;;;;-145.68;60.04;72554.47;10404668;28;20196;-76
2023/09/13 16:29:31;;;;;;;3.17;2.50;;;;;;;-145.68;64.01;72608.44;10403119;28;20666;-75
2023/09/13 16:34:32;;;;;;;2.80;2.25;;;;;;;-145.68;67.93;72678.38;10402640;28;20219;-75
2023/09/13 16:39:32;;;;;;;3.72;2.60;;;;;;;-145.68;69.71;72690.38;10403038;28;20715;-74
2023/09/13 16:44:33;;;;;;;2.53;2.20;;;;;;;-145.68;72.03;72734.31;10403266;28;20259;-74
2023/09/13 16:49:33;;;;;;;4.32;2.38;;;;;;;-145.68;73.60;72746.31;10402244;28;20327;-75
2023/09/13 16:54:34;;;;;;;3.05;2.15;;;;;;;-145.68;74.50;72764.31;10403604;28;20217;-74
2023/09/13 16:59:35;;;;;;;2.67;2.47;;;;;;;-145.68;76.54;72786.28;10401105;28;20185;-72
2023/09/13 17:04:35;;;;;;;3.20;2.90;;;;;;;-145.68;78.75;72810.28;10378651;28;20210;-75
2023/09/13 17:09:35;;;;;;;3.08;2.78;;;;;;;-145.68;82.14;72874.22;10401688;28;21577;-75
2023/09/13 17:14:36;;;;;;;3.30;2.70;;;;;;;-145.68;84.28;72914.19;10417177;28;20228;-75
2023/09/13 17:19:37;;;;;;;2.60;2.40;;;;;;;-145.68;89.97;72946.16;10406486;28;20205;-75
2023/09/13 17:24:37;;;;;;;3.08;2.88;;;;;;;-145.68;96.01;73006.13;10405009;28;20216;-75
2023/09/13 17:29:38;;;;;;;3.63;3.33;;;;;;;-145.68;100.00;73106.06;10404863;28;20195;-75
2023/09/13 17:34:38;;;;;;;4.95;3.88;;;;;;;-145.68;100.00;73190.00;10401122;28;20255;-74
2023/09/13 17:39:39;;;;;;;5.20;4.20;;;;;;;-145.68;100.00;73192.00;10400646;28;20188;-73
2023/09/13 17:44:39;;;;;;;6.70;3.92;;;;;;;-145.68;100.00;73207.97;10385305;28;20610;-74
2023/09/13 17:49:40;;;;;;;6.22;4.15;;;;;;;-145.68;100.00;73235.97;10402213;28;20562;-73
2023/09/13 17:54:40;;;;;;;6.18;3.75;;;;;;;-145.68;100.00;73215.97;10405147;28;20224;-73
2023/09/13 17:59:41;;;;;;;4.60;4.20;;;;;;;-145.68;100.00;73217.97;10402083;28;20246;-73
2023/09/13 18:04:41;;;;;;;4.93;3.97;;;;;;;-145.68;100.00;73255.94;10416835;28;20294;-74
2023/09/13 18:09:42;;;;;;;5.88;4.20;;;;;;;-145.68;100.00;73253.94;10415108;28;20184;-73
2023/09/13 18:14:43;;;;;;;4.70;4.10;;;;;;;-145.68;100.00;73251.94;10409333;28;20216;-73
2023/09/13 18:19:43;;;;;;;6.35;5.00;;;;;;;-145.68;100.00;73297.91;10408938;28;20217;-73
2023/09/13 18:24:44;;;;;;;5.30;4.15;;;;;;;-145.68;100.00;73309.91;10414262;28;20197;-74
2023/09/13 18:29:45;;;;;;;5.90;4.60;;;;;;;-145.68;100.00;73305.91;10407482;28;20668;-75
2023/09/13 18:34:47;;;;;;;6.90;4.60;;;;;;;-145.68;100.00;73333.91;10407540;28;20227;-75
2023/09/13 18:39:47;;;;;;;9.77;4.75;;;;;;;-145.68;100.00;73335.91;10407051;28;20223;-75
2023/09/13 18:44:47;;;;;;;5.32;4.80;;;;;;;-145.68;100.00;73349.88;10406918;28;20700;-75
2023/09/13 18:49:48;;;;;;;7.85;5.20;;;;;;;-145.68;100.00;73381.88;10406723;28;20228;-75
2023/09/13 18:54:48;;;;;;;6.93;5.50;;;;;;;-145.68;100.00;73411.84;10401526;28;20251;-75
2023/09/13 18:59:49;;;;;;;6.72;5.55;;;;;;;-145.68;100.00;73431.84;10406932;28;20203;-76
2023/09/13 19:04:49;;;;;;;10.63;6.18;;;;;;;-145.68;100.00;73429.84;10406893;28;20193;-76
2023/09/13 19:09:51;;;;;;;9.43;6.38;;;;;;;-145.68;100.00;73413.84;10405573;28;20664;-76
2023/09/13 19:14:52;;;;;;;5.55;5.00;;;;;;;-145.68;100.00;73391.84;10405691;28;20248;-76
2023/09/13 19:19:52;;;;;;;6.50;5.60;;;;;;;-145.68;100.00;73383.88;10405372;28;20192;-76
2023/09/13 19:24:52;;;;;;;8.00;5.53;;;;;;;-145.68;100.00;73373.88;10405910;28;20196;-76
2023/09/13 19:29:53;;;;;;;6.10;5.50;;;;;;;-145.68;100.00;73355.88;10404571;28;20204;-75
2023/09/13 19:34:53;;;;;;;6.30;5.72;;;;;;;-145.68;100.00;73367.88;10405436;28;20212;-76
2023/09/13 19:39:53;;;;;;;8.48;6.45;;;;;;;-145.68;100.00;73383.88;10387078;28;20243;-76
2023/09/13 19:44:54;;;;;;;6.68;5.72;;;;;;;-145.68;100.00;73375.88;10404404;28;20200;-76
2023/09/13 19:49:55;;;;;;;8.85;7.57;;;;;;;-145.68;100.00;73319.91;10404634;28;20248;-76
2023/09/13 19:54:56;;;;;;;8.43;7.53;;;;;;;-145.68;100.00;73299.91;10404378;28;20302;-76
2023/09/13 19:59:56;;;;;;;8.70;7.45;;;;;;;-145.68;100.00;73293.94;10386171;28;20251;-76
2023/09/13 20:04:56;;;;;;;8.82;7.68;;;;;;;-145.68;100.00;73319.91;10404117;28;20184;-76
2023/09/13 20:09:57;;;;;;;8.40;7.25;;;;;;;-145.68;100.00;73331.91;10406899;28;20192;-76
2023/09/13 20:14:57;;;;;;;7.28;6.25;;;;;;;-145.68;100.00;73335.91;10404549;28;20217;-76
2023/09/13 20:19:58;;;;;;;7.40;6.70;;;;;;;-145.68;100.00;73329.91;10402242;28;20548;-76
2023/09/13 20:24:58;;;;;;;8.30;7.00;;;;;;;-145.68;100.00;73355.88;10386070;28;21161;-76
2023/09/13 20:29:58;;;;;;;7.40;6.70;;;;;;;-145.68;100.00;73355.88;10401857;28;20200;-74
2023/09/13 20:35:00;;;;;;;7.18;6.57;;;;;;;-145.68;100.00;73361.88;10403145;28;20224;-75
2023/09/13 20:40:01;;;;;;;8.68;7.72;;;;;;;-145.68;100.00;73393.84;10402271;28;20196;-75
2023/09/13 20:45:01;;;;;;;9.43;7.10;;;;;;;-145.68;100.00;73391.84;10407199;28;20671;-75
2023/09/13 20:50:03;;;;;;;8.18;7.38;;;;;;;-145.68;100.00;73391.84;10410525;28;20239;-76
2023/09/13 20:55:04;;;;;;;8.80;7.65;;;;;;;-145.68;100.00;73413.84;10410227;28;20418;-75
2023/09/13 21:00:06;;;;;;;9.10;8.20;;;;;;;-145.68;100.00;73403.84;10410191;28;20242;-76
2023/09/13 21:05:07;;;;;;;8.20;7.40;;;;;;;-145.68;100.00;73399.84;10410845;28;20188;-76
2023/09/13 21:10:08;;;;;;;7.95;7.25;;;;;;;-145.68;100.00;73403.84;10410108;28;20204;-76
2023/09/13 21:15:08;;;;;;;9.50;8.10;;;;;;;-145.68;100.00;73405.84;10409792;28;20833;-80
2023/09/13 21:20:09;;;;;;;8.52;7.25;;;;;;;-145.68;100.00;73417.84;10410068;28;20296;-76
2023/09/13 21:25:09;;;;;;;9.52;8.27;;;;;;;-145.68;100.00;73431.84;10410695;28;20308;-76
2023/09/13 21:30:10;;;;;;;8.15;7.28;;;;;;;-145.68;100.00;73429.84;10410236;28;20185;-76
2023/09/13 21:35:10;;;;;;;9.40;8.50;;;;;;;-145.68;100.00;73425.84;10410501;28;20217;-75
2023/09/13 21:40:11;;;;;;;8.75;7.85;;;;;;;-145.68;100.00;73431.84;10410035;28;20192;-75
2023/09/13 21:45:12;;;;;;;9.90;7.90;;;;;;;-145.68;100.00;73427.84;10410537;28;20188;-76
2023/09/13 21:50:12;;;;;;;9.95;7.88;;;;;;;-145.68;100.00;73429.84;10409789;28;20247;-76
2023/09/13 21:55:12;;;;;;;10.30;8.52;;;;;;;-145.68;100.00;73441.81;10408024;28;20672;-75
2023/09/13 22:00:16;;;;;;;8.48;7.55;;;;;;;-145.68;100.00;73425.84;10409698;28;20253;-75
2023/09/13 22:05:21;;;;;;;8.52;7.72;;;;;;;-145.68;100.00;73443.84;10409710;28;20657;-75
2023/09/13 22:10:22;;;;;;;9.20;7.38;;;;;;;-145.68;100.00;73431.84;10390959;28;20227;-76
2023/09/13 22:15:22;;;;;;;9.52;8.38;;;;;;;-145.68;100.00;73447.81;10409910;28;20735;-74
2023/09/13 22:20:23;;;;;;;9.73;8.77;;;;;;;-145.68;100.00;73447.81;10408668;28;20197;-74
2023/09/13 22:25:24;;;;;;;12.75;9.65;;;;;;;-145.68;100.00;73467.81;10408907;28;20664;-75
2023/09/13 22:30:26;;;;;;;11.73;9.52;;;;;;;-145.68;100.00;73501.78;10407925;28;20196;-75
2023/09/13 22:35:26;;;;;;;10.55;9.55;;;;;;;-145.68;100.00;73533.78;10408506;28;20271;-75
2023/09/13 22:40:26;;;;;;;11.55;10.35;;;;;;;-145.68;100.00;73531.78;10407851;28;20259;-76
2023/09/13 22:45:27;;;;;;;11.45;10.23;;;;;;;-145.68;100.00;73551.75;10390484;28;20189;-75
2023/09/13 22:50:28;;;;;;;11.90;10.73;;;;;;;-145.68;100.00;73561.75;10407147;28;20826;-76
2023/09/13 22:55:29;;;;;;;12.68;11.45;;;;;;;-145.68;100.00;73553.75;10407875;28;20227;-76